Tiempo atmosférico en la estación meteorológica de Coll De Nargó, Lleida (603 m.)



Fecha
DESCASC
Temp. máxima en grados centígrados (hora)
DESCASC
Temp. mínima en grados centígrados (hora)
DESCASC
Temp. media en grados centígrados
DESCASC
Racha de viento máxima en m/sg (hora)
DESCASC
Velocidad máxima media en intervalos de 10 minutos(hora)
DESCASC
Precipitaciones diarias en mm
DESCASC
Precipitaciones de 00:00 a 06:00 en mm
DESCASC
Precipitaciones de 06:00 a 12:00 en mm
DESCASC
Precipitaciones de 12:00 a 18:00 en mm
DESCASC
Precipitaciones de 18:00 a 24:00 en mm
DESCASC
31-05-2020 26.5 (16:20) 13.6 (23:00) 20.1 12.78 (12:40) 9.72 (13:00) 29 0 0 0 29
30-05-2020 25.4 (16:10) 11.3 (04:40) 18.3 12.5 (20:50) 10 (20:50) 0.2 0.2 0 0 0
29-05-2020 28.2 (14:10) 10.7 (06:20) 19.5 16.11 (18:50) 8.89 (18:40) 19.2 0 0 0 19.2
28-05-2020 27.2 (15:40) 12.5 (00:00) 19.9 11.11 (14:40) 8.06 (14:40) 0.4 0.4 0 0 0
27-05-2020 27.5 (14:40) 12 (00:00) 19.8 11.11 (17:40) 6.94 (15:10) 0.8 0 0 0 0.8
26-05-2020 27 (15:00) 13.6 (00:00) 20.3 12.22 (15:30) 8.61 (15:10) 2.8 0 0 0 2.8
25-05-2020 26.2 (16:00) 17.4 (00:00) 21.8 11.67 (17:40) 8.33 (15:30) 0 0 0 0 0
24-05-2020 24.9 (15:30) 15.1 (00:00) 20 13.61 (11:40) 11.94 (11:40) 0 0 0 0 0
23-05-2020 28.1 (14:00) 12.2 (00:00) 20.2 13.89 (23:20) 9.17 (18:00) 0 0 0 0 0
22-05-2020 30.8 (15:30) 11.7 (00:00) 21.2 11.67 (20:20) 6.94 (12:50) 0 0 0 0 0
21-05-2020 28.5 (15:40) 11.1 (00:00) 19.8 11.67 (17:40) 7.78 (16:00) 0 0 0 0 0
20-05-2020 27.4 (11:50) 10.9 (00:00) 19.1 12.78 (15:40) 9.72 (16:40) 0 0 0 0 0
19-05-2020 28.5 (13:30) 9.1 (00:00) 18.8 13.33 (14:20) 10 (14:50) 0 0 0 0 0
18-05-2020 25 (12:50) 7.2 (00:00) 16.1 15 (13:30) 11.39 (13:30) 0 0 0 0 0
17-05-2020 21.1 (17:20) 8.1 (00:00) 14.6 16.39 (14:40) 14.17 (14:30) 0 0 0 0 0
16-05-2020 24.2 (13:10) 9.1 (00:00) 16.7 12.5 (14:10) 9.44 (14:40) 0.4 0 0 0.4 0
15-05-2020 20.4 (13:50) 9.2 (00:00) 14.8 14.17 (15:00) 9.72 (15:00) 0.2 0 0.2 0 0
14-05-2020 16.6 (13:00) 8.3 (00:00) 12.5 8.61 (16:40) 5.56 (16:20) 19.4 0 0 15.6 3.8
13-05-2020 20.3 (17:20) 11.3 (00:00) 15.8 10.56 (13:40) 7.5 (13:40) 9 1.2 7.6 0.2 0
12-05-2020 22.7 (15:20) 5.8 (00:00) 14.3 13.33 (13:30) 10.56 (13:30) 0 0 0 0 0
11-05-2020 20.5 (16:20) 10 (00:00) 15.3 11.39 (18:30) 6.67 (08:50) 0.2 0.2 0 0 0
10-05-2020 16.2 (00:00) 10.5 (00:00) 13.4 16.11 (13:20) 7.22 (18:30) 23 0 4.4 15.4 3.2
09-05-2020 22.9 (12:40) 8.5 (00:00) 15.7 18.33 (13:50) 12.5 (13:40) 0 0 0 0 0
08-05-2020 25.8 (16:10) 10.7 (00:00) 18.2 11.11 (17:50) 7.22 (21:50) 0 0 0 0 0
07-05-2020 26.3 (14:40) 8.8 (00:00) 17.5 11.11 (14:40) 8.33 (14:20) 0 0 0 0 0
06-05-2020 26.3 (16:50) 7.2 (00:00) 16.7 12.5 (18:00) 7.78 (13:20) 0 0 0 0 0
05-05-2020 24.6 (13:20) 10.1 (00:00) 17.4 12.5 (12:30) 10.28 (19:50) 0 0 0 0 0
04-05-2020 28.3 (15:00) 9.6 (00:00) 18.9 13.06 (21:30) 9.44 (13:40) 0 0 0 0 0
03-05-2020 25.3 (15:00) 7.9 (00:00) 16.6 11.67 (17:50) 8.61 (16:00) 0 0 0 0 0

Gráficas

Temp. máximas Temp. mínimas Temp. medias Precipitaciones Rachas de viento máximas Velocidades máximas media en intervalos de 10 minutos

Datos horarios

Fecha y hora oficial Temperatura (ºC) Velocidad del viento (km/h) Dirección del viento Racha (km/h) Dirección de racha Precipitación (mm) Presión (hPa) Tendencia (hPa) Humedad (%)
2020-06-01 23:00:00 14.2 0 Calma 6 Norte 0 -- -- 98
2020-06-01 22:00:00 14.7 3 Norte 9 Este 0 -- -- 98
2020-06-01 21:00:00 14.9 4 Sur 23 Norte 2.6 -- -- 98
2020-06-01 20:00:00 15 10 Norte 57 Norte 7.8 -- -- 94
2020-06-01 19:00:00 21.7 17 Sudoeste 30 Sur 0 -- -- 64
2020-06-01 18:00:00 23 18 Sur 40 Sur 0 -- -- 60
2020-06-01 17:00:00 21.6 25 Sudeste 40 Sudeste 0 -- -- 68
2020-06-01 16:00:00 22.1 32 Sur 45 Sur 0 -- -- 67
2020-06-01 15:00:00 21.3 26 Sur 45 Sur 0 -- -- 68
2020-06-01 14:00:00 17.3 32 Sur 42 Sur 0.2 -- -- 83
2020-06-01 13:00:00 17.5 27 Sur 35 Sur 0 -- -- 82
2020-06-01 12:00:00 18.8 12 Sudeste 26 Sur 0 -- -- 75
2020-06-01 11:00:00 17.5 4 Sur 6 Sur 0 -- -- 82
2020-06-01 10:00:00 16 0 Calma 8 Nordeste 0 -- -- 93
2020-06-01 09:00:00 16.3 4 Norte 10 Nordeste 0 -- -- 94
2020-06-01 08:00:00 13.8 5 Norte 11 Norte 0 -- -- 98
2020-06-01 07:00:00 12 5 Nordeste 14 Sur 0 -- -- 100
2020-06-01 06:00:00 12.4 4 Sur 9 Nordeste 0 -- -- 100
2020-06-01 05:00:00 12.7 2 Norte 12 Norte 0 -- -- 100
2020-06-01 04:00:00 12.9 10 Norte 16 Norte 0 -- -- 100
2020-06-01 03:00:00 13.4 6 Norte 10 Nordeste 0 -- -- 99
2020-06-01 02:00:00 14 7 Norte 11 Norte 0.6 -- -- 99
2020-06-01 01:00:00 14.1 6 Norte 14 Noroeste 2.4 -- -- 99
2020-06-01 00:00:00 13.8 4 Nordeste 13 Sur 6.2 -- -- 98
2020-05-31 23:00:00 13.6 14 Sur 33 Sur 20.8 -- -- 97
2020-05-31 22:00:00 16.7 8 Sur 36 Sur 2 -- -- 88
2020-05-31 21:00:00 20 19 Sur 39 Sur 0 -- -- 65
2020-05-31 20:00:00 20.7 24 Sur 43 Sur 0 -- -- 64
2020-05-31 19:00:00 22.5 27 Sur 45 Sur 0 -- -- 59
2020-05-31 18:00:00 24.1 24 Sudeste 38 Sudeste 0 -- -- 54
2020-05-31 17:00:00 26.1 22 Sur 36 Sur 0 -- -- 49
2020-05-31 16:00:00 26.1 21 Sudeste 43 Sur 0 -- -- 46
2020-05-31 15:00:00 25.8 29 Sur 42 Sur 0 -- -- 51
2020-05-31 14:00:00 24.6 33 Sur 45 Sur 0 -- -- 56
2020-05-31 13:00:00 23.6 35 Sur 46 Sur 0 -- -- 59
2020-05-31 12:00:00 22.2 33 Sur 42 Sur 0 -- -- 62
2020-05-31 11:00:00 21.2 26 Sur 36 Sur 0 -- -- 67
2020-05-31 10:00:00 20.1 12 Sudeste 18 Sudeste 0 -- -- 72
2020-05-31 09:00:00 17.7 7 Sudeste 13 Este 0 -- -- 81
2020-05-31 08:00:00 16.3 2 Sudoeste 9 Sur 0 -- -- 90
2020-05-31 07:00:00 14.3 0 Calma 20 Sur 0 -- -- 94
2020-05-31 06:00:00 14.4 10 Sur 22 Sur 0 -- -- 94
2020-05-31 05:00:00 15.4 19 Sur 24 Sur 0 -- -- 91
2020-05-31 04:00:00 15.8 18 Sur 25 Sur 0 -- -- 89
2020-05-31 03:00:00 16.3 14 Sur 29 Sur 0 -- -- 86
2020-05-31 02:00:00 16.4 21 Sur 27 Sur 0 -- -- 86
2020-05-31 01:00:00 16.6 21 Sur 30 Sur 0 -- -- 85
2020-05-31 00:00:00 17 23 Sur 35 Sur 0 -- -- 84
2020-05-30 23:00:00 17.7 22 Sur 39 Sur 0 -- -- 80
2020-05-30 22:00:00 18.4 26 Sur 37 Sur 0 -- -- 79
2020-05-30 21:00:00 19.3 30 Sur 45 Sur 0 -- -- 74
2020-05-30 20:00:00 21.2 26 Sudeste 40 Sur 0 -- -- 66
2020-05-30 19:00:00 22.8 19 Sur 35 Sur 0 -- -- 58
2020-05-30 18:00:00 24.3 24 Sur 38 Sudeste 0 -- -- 53
2020-05-30 17:00:00 24.6 22 Sur 38 Sudeste 0 -- -- 48
2020-05-30 16:00:00 25.1 24 Sur 38 Sur 0 -- -- 48
2020-05-30 15:00:00 24.8 26 Sur 39 Sur 0 -- -- 49
2020-05-30 14:00:00 23.7 29 Sudeste 40 Sur 0 -- -- 51
2020-05-30 13:00:00 22.6 31 Sur 41 Sur 0 -- -- 55
2020-05-30 12:00:00 21.2 34 Sur 42 Sur 0 -- -- 63
2020-05-30 11:00:00 20.8 14 Sudeste 25 Sudeste 0 -- -- 69
2020-05-30 10:00:00 20.9 2 Este 5 Nordeste 0 -- -- 67
2020-05-30 09:00:00 16.8 3 Nordeste 7 Nordeste 0 -- -- 96
2020-05-30 08:00:00 12.5 4 Norte 8 Norte 0 -- -- 100
2020-05-30 07:00:00 11.6 5 Norte 8 Norte 0 -- -- 100
2020-05-30 06:00:00 11.5 5 Norte 8 Norte 0 -- -- 100
2020-05-30 05:00:00 11.7 8 Norte 9 Norte 0.2 -- -- 100
2020-05-30 04:00:00 11.7 5 Norte 10 Norte 0 -- -- 100
2020-05-30 03:00:00 11.7 8 Nordeste 10 Nordeste 0 -- -- 99
2020-05-30 02:00:00 12.1 8 Norte 13 Norte 0 -- -- 99
2020-05-30 01:00:00 12.6 8 Nordeste 12 Nordeste 0 -- -- 98
2020-05-30 00:00:00 13.2 9 Nordeste 13 Norte 0 -- -- 97
2020-05-29 23:00:00 14.2 4 Norte 14 Sur 0 -- -- 93
2020-05-29 22:00:00 14.5 9 Sur 34 Sur 0.4 -- -- 92
2020-05-29 21:00:00 14.8 15 Sur 34 Sur 4.2 -- -- 94
2020-05-29 20:00:00 14.7 17 Sudoeste 48 Sur 13.8 -- -- 95
2020-05-29 19:00:00 18.3 32 Sur 58 Sur 0.8 -- -- 83
2020-05-29 18:00:00 24.2 28 Sur 42 Sur 0 -- -- 48
2020-05-29 17:00:00 25.1 13 Sudeste 32 Sur 0 -- -- 45
2020-05-29 16:00:00 25.2 21 Sur 35 Sur 0 -- -- 46
2020-05-29 15:00:00 27.1 25 Sur 36 Sur 0 -- -- 43
2020-05-29 14:00:00 28 24 Sur 35 Sur 0 -- -- 43
2020-05-29 13:00:00 27.1 21 Sur 33 Sur 0 -- -- 45
2020-05-29 12:00:00 25.6 12 Sur 21 Sur 0 -- -- 49
2020-05-29 11:00:00 25.2 7 Nordeste 12 Nordeste 0 -- -- 51
2020-05-29 10:00:00 22.6 8 Nordeste 14 Norte 0 -- -- 56
2020-05-29 09:00:00 19.9 5 Nordeste 10 Nordeste 0 -- -- 64
2020-05-29 08:00:00 14.9 4 Norte 8 Norte 0 -- -- 93
2020-05-29 07:00:00 10.7 5 Norte 9 Nordeste 0 -- -- 99
2020-05-29 06:00:00 10.9 6 Norte 8 Nordeste 0 -- -- 99
2020-05-29 05:00:00 11.2 5 Norte 9 Norte 0 -- -- 98
2020-05-29 04:00:00 11.5 6 Norte 9 Norte 0 -- -- 97
2020-05-29 03:00:00 11.9 6 Norte 9 Nordeste 0 -- -- 96
2020-05-29 02:00:00 12.9 4 Norte 6 Norte 0 -- -- 93
2020-05-29 01:00:00 14.2 2 Nordeste 5 Nordeste 0 -- -- 88
2020-05-29 00:00:00 15.1 4 Nordeste 9 Norte 0 -- -- 82
2020-05-28 23:00:00 16.3 6 Nordeste 17 Sur 0 -- -- 77
2020-05-28 22:00:00 19 6 Sudeste 22 Sur 0 -- -- 64
2020-05-28 21:00:00 21.2 12 Sur 21 Sur 0 -- -- 56
2020-05-28 20:00:00 23.1 13 Sur 27 Sur 0 -- -- 48
2020-05-28 19:00:00 24.4 13 Sur 26 Sur 0 -- -- 41
2020-05-28 18:00:00 26.3 19 Sudeste 28 Sudeste 0 -- -- 39
2020-05-28 17:00:00 26.7 22 Sudeste 35 Sur 0 -- -- 38
2020-05-28 16:00:00 27 24 Sur 39 Sudeste 0 -- -- 40
2020-05-28 15:00:00 27 25 Sur 40 Sudeste 0 -- -- 42
2020-05-28 14:00:00 26.1 27 Sudeste 38 Sur 0 -- -- 47
2020-05-28 13:00:00 24.9 27 Sur 39 Sur 0 -- -- 52
2020-05-28 12:00:00 24.1 22 Sur 29 Sur 0 -- -- 56
2020-05-28 11:00:00 23.6 4 Nordeste 10 Nordeste 0 -- -- 59
2020-05-28 10:00:00 21.4 5 Nordeste 8 Nordeste 0 -- -- 74
2020-05-28 09:00:00 15 4 Norte 6 Nordeste 0 -- -- 97
2020-05-28 08:00:00 13.4 3 Norte 7 Norte 0 -- -- 99
2020-05-28 07:00:00 13 3 Nordeste 6 Este 0 -- -- 99
2020-05-28 06:00:00 13 4 Nordeste 8 Norte 0 -- -- 99
2020-05-28 05:00:00 13 3 Nordeste 5 Norte 0 -- -- 98
2020-05-28 04:00:00 14.1 0 Calma 4 Nordeste 0 -- -- 98
2020-05-28 03:00:00 14.6 0 Calma 2 Nordeste 0 -- -- 98
2020-05-28 02:00:00 14.9 0 Calma 6 Norte 0.2 -- -- 97
2020-05-28 01:00:00 15.1 0 Calma 4 Norte 0.2 -- -- 96
2020-05-28 00:00:00 15.5 2 Nordeste 13 Noroeste 0.6 -- -- 93
2020-05-27 23:00:00 17.3 11 Noroeste 19 Oeste 0.2 -- -- 79
2020-05-27 22:00:00 19.6 9 Sur 27 Sur 0 -- -- 57
2020-05-27 21:00:00 20.5 17 Sur 39 Sur 0 -- -- 55
2020-05-27 20:00:00 22.3 18 Sur 31 Sudeste 0 -- -- 50
2020-05-27 19:00:00 22.5 15 Sur 33 Sur 0 -- -- 54
2020-05-27 18:00:00 23.7 19 Sudeste 40 Sudeste 0 -- -- 51
2020-05-27 17:00:00 24 16 Sudeste 36 Sur 0 -- -- 50
2020-05-27 16:00:00 24.6 17 Sur 38 Sur 0 -- -- 46
2020-05-27 15:00:00 27 24 Sudeste 37 Sudeste 0 -- -- 42
2020-05-27 14:00:00 26.9 22 Sur 35 Sur 0 -- -- 45
2020-05-27 13:00:00 25.7 21 Sudeste 30 Sur 0 -- -- 47
2020-05-27 12:00:00 24.4 15 Sur 23 Sur 0 -- -- 53
2020-05-27 11:00:00 22.5 3 Norte 9 Nordeste 0 -- -- 57
2020-05-27 10:00:00 18.9 2 Nordeste 9 Este 0 -- -- 66
2020-05-27 09:00:00 20.1 5 Nordeste 8 Nordeste 0 -- -- 71
2020-05-27 08:00:00 15.1 6 Norte 15 Norte 0 -- -- 94
2020-05-27 07:00:00 12.5 2 Noroeste 10 Nordeste 0 -- -- 100
2020-05-27 06:00:00 12.4 4 Nordeste 8 Nordeste 0 -- -- 99
2020-05-27 05:00:00 12.9 3 Norte 9 Norte 0 -- -- 99
2020-05-27 04:00:00 13.6 5 Nordeste 9 Nordeste 0 -- -- 99
2020-05-27 03:00:00 14.6 7 Nordeste 10 Nordeste 0 -- -- 98
2020-05-27 02:00:00 15.6 5 Nordeste 7 Nordeste 0 -- -- 97
2020-05-27 01:00:00 16.5 2 Norte 6 Norte 0 -- -- 96
2020-05-27 00:00:00 17 4 Sur 6 Norte 0 -- -- 94
2020-05-26 23:00:00 17.3 0 Calma 12 Sur 0 -- -- 92
2020-05-26 22:00:00 17.7 4 Sur 18 Sur 2.8 -- -- 91
2020-05-26 21:00:00 22.8 13 Sur 23 Sur 0 -- -- 59
2020-05-26 20:00:00 23.9 15 Sudeste 24 Sur 0 -- -- 57
2020-05-26 19:00:00 24.1 17 Sur 28 Sur 0 -- -- 57
2020-05-26 18:00:00 23.8 14 Sur 36 Sur 0 -- -- 58
2020-05-26 17:00:00 24.3 19 Sudeste 41 Sudeste 0 -- -- 56
2020-05-26 16:00:00 25.5 28 Sudeste 44 Sur 0 -- -- 53
2020-05-26 15:00:00 27 27 Sur 42 Sur 0 -- -- 49
2020-05-26 14:00:00 26.7 28 Sur 37 Sur 0 -- -- 50
2020-05-26 13:00:00 25.9 24 Sudeste 33 Sur 0 -- -- 53
2020-05-26 12:00:00 25.2 19 Sur 26 Sur 0 -- -- 56
2020-05-26 11:00:00 24.8 4 Nordeste 10 Norte 0 -- -- 49
2020-05-26 10:00:00 22.6 5 Nordeste 12 Nordeste 0 -- -- 51
2020-05-26 09:00:00 17.5 6 Nordeste 10 Nordeste 0 -- -- 69
2020-05-26 08:00:00 15.4 3 Nordeste 6 Norte 0 -- -- 78
2020-05-26 07:00:00 14 5 Norte 6 Norte 0 -- -- 83
2020-05-26 06:00:00 14.4 5 Nordeste 10 Norte 0 -- -- 80
2020-05-26 05:00:00 15.4 9 Nordeste 16 Nordeste 0 -- -- 77
2020-05-26 04:00:00 16.9 4 Nordeste 17 Sur 0 -- -- 79
2020-05-26 03:00:00 18.1 10 Sudeste 24 Sudeste 0 -- -- 80
2020-05-26 02:00:00 18.7 17 Sudeste 27 Sudeste 0 -- -- 76
2020-05-26 01:00:00 18.7 16 Sur 30 Sur 0 -- -- 79
2020-05-26 00:00:00 18.3 16 Sur 23 Sur 0 -- -- 83
2020-05-25 23:00:00 18.8 10 Sur 23 Sur 0 -- -- 79
2020-05-25 22:00:00 19.4 12 Sur 19 Sur 0 -- -- 75
2020-05-25 21:00:00 20.4 12 Sur 19 Sur 0 -- -- 69
2020-05-25 20:00:00 21.4 15 Sur 26 Sur 0 -- -- 64
2020-05-25 19:00:00 22.9 21 Sur 40 Sur 0 -- -- 58
2020-05-25 18:00:00 23.3 23 Sur 42 Sudeste 0 -- -- 58
2020-05-25 17:00:00 23.6 28 Sudeste 38 Sur 0 -- -- 58
2020-05-25 16:00:00 26.2 27 Sur 39 Sur 0 -- -- 50
2020-05-25 15:00:00 25 27 Sur 35 Sur 0 -- -- 54
2020-05-25 14:00:00 24 23 Sur 36 Sur 0 -- -- 54
2020-05-25 13:00:00 21.2 20 Sur 32 Sudeste 0 -- -- 57
2020-05-25 12:00:00 19.9 21 Sur 33 Sur 0 -- -- 68
2020-05-25 11:00:00 20.9 20 Sudeste 30 Sur 0 -- -- 66
2020-05-25 10:00:00 20.8 11 Sudeste 24 Sur 0 -- -- 69
2020-05-25 09:00:00 17.8 21 Sur 30 Sur 0 -- -- 79
2020-05-25 08:00:00 17.4 18 Sur 28 Sur 0 -- -- 82
2020-05-25 07:00:00 17.5 20 Sur 30 Sudeste 0 -- -- 84
2020-05-25 06:00:00 17.4 21 Sur 29 Sur 0 -- -- 86
2020-05-25 05:00:00 17.4 18 Sur 28 Sur 0 -- -- 85
2020-05-25 04:00:00 17.8 23 Sur 30 Sur 0 -- -- 85
2020-05-25 03:00:00 17.7 22 Sur 33 Sur 0 -- -- 87
2020-05-25 02:00:00 17.7 22 Sur 27 Sur 0 -- -- 86
2020-05-25 01:00:00 18.1 21 Sur 30 Sur 0 -- -- 84
2020-05-25 00:00:00 18.3 21 Sur 31 Sudeste 0 -- -- 83
2020-05-24 23:00:00 19.2 19 Sur 31 Sur 0 -- -- 78
2020-05-24 22:00:00 20.3 10 Sur 22 Sur 0 -- -- 68
2020-05-24 21:00:00 20.9 13 Sur 30 Sur 0 -- -- 66
2020-05-24 20:00:00 21.2 24 Sur 35 Sur 0 -- -- 65
2020-05-24 19:00:00 21.9 25 Sur 39 Sur 0 -- -- 63
2020-05-24 18:00:00 22.1 29 Sur 43 Sur 0 -- -- 62
2020-05-24 17:00:00 21.9 31 Sur 42 Sur 0 -- -- 63
2020-05-24 16:00:00 24.2 31 Sur 42 Sur 0 -- -- 56
2020-05-24 15:00:00 24.1 29 Sur 44 Sur 0 -- -- 57
2020-05-24 14:00:00 23.8 32 Sur 43 Sur 0 -- -- 59
2020-05-24 13:00:00 20.8 32 Sur 47 Sur 0 -- -- 66
2020-05-24 12:00:00 18.8 37 Sur 49 Sur 0 -- -- 69
2020-05-24 11:00:00 20.3 30 Sur 41 Sur 0 -- -- 64
2020-05-24 10:00:00 17.3 28 Sur 46 Sur 0 -- -- 71
2020-05-24 09:00:00 15.1 39 Sur 46 Sur 0 -- -- 79
2020-05-24 08:00:00 16.7 17 Sur 26 Sur 0 -- -- 79
2020-05-24 07:00:00 16.3 14 Sur 33 Sur 0 -- -- 80
2020-05-24 06:00:00 16.5 25 Sur 32 Sur 0 -- -- 79
2020-05-24 05:00:00 17 22 Sur 27 Sur 0 -- -- 75
2020-05-24 04:00:00 17.6 16 Sudeste 28 Sur 0 -- -- 70
2020-05-24 03:00:00 18.1 19 Sur 30 Sudeste 0 -- -- 68
2020-05-24 02:00:00 18.7 22 Sudoeste 34 Sur 0 -- -- 63
2020-05-24 01:00:00 18.7 16 Sur 48 Sur 0 -- -- 65
2020-05-24 00:00:00 19.1 26 Sur 50 Sur 0 -- -- 62
2020-05-23 23:00:00 20.5 22 Sur 45 Sur 0 -- -- 62
2020-05-23 22:00:00 22.3 20 Sur 44 Sudeste 0 -- -- 59
2020-05-23 21:00:00 23.4 13 Sur 29 Sudoeste 0 -- -- 64
2020-05-23 20:00:00 24 17 Sur 40 Sur 0 -- -- 62
2020-05-23 19:00:00 25.5 29 Sur 42 Sudeste 0 -- -- 55
2020-05-23 18:00:00 26.4 33 Sur 45 Sur 0 -- -- 52
2020-05-23 17:00:00 26.7 31 Sur 40 Sur 0 -- -- 51
2020-05-23 16:00:00 27.7 31 Sur 41 Sur 0 -- -- 43
2020-05-23 15:00:00 27.9 30 Sur 43 Sur 0 -- -- 41
2020-05-23 14:00:00 28.1 30 Sur 40 Sur 0 -- -- 36
2020-05-23 13:00:00 27.1 28 Sur 35 Sur 0 -- -- 38
2020-05-23 12:00:00 26.8 20 Sur 29 Sur 0 -- -- 43
2020-05-23 11:00:00 26.7 3 Nordeste 10 Nordeste 0 -- -- 48
2020-05-23 10:00:00 23.8 5 Norte 8 Norte 0 -- -- 53
2020-05-23 09:00:00 19.6 4 Norte 7 Norte 0 -- -- 65
2020-05-23 08:00:00 15.6 3 Norte 9 Noroeste 0 -- -- 81
2020-05-23 07:00:00 13.4 4 Noroeste 6 Norte 0 -- -- 88
2020-05-23 06:00:00 12.9 5 Norte 9 Nordeste 0 -- -- 89
2020-05-23 05:00:00 12.6 5 Norte 9 Norte 0 -- -- 91
2020-05-23 04:00:00 13 7 Norte 9 Norte 0 -- -- 89
2020-05-23 03:00:00 13.6 6 Norte 8 Norte 0 -- -- 88
2020-05-23 02:00:00 15.2 3 Norte 5 Norte 0 -- -- 80
2020-05-23 01:00:00 17 0 Calma 10 Sur 0 -- -- 72
2020-05-23 00:00:00 18.8 4 Sur 15 Sur 0 -- -- 65
2020-05-22 23:00:00 20.6 11 Sur 28 Sur 0 -- -- 58
2020-05-22 22:00:00 22.8 19 Sur 27 Sur 0 -- -- 53
2020-05-22 21:00:00 24.2 18 Sur 42 Sur 0 -- -- 50
2020-05-22 20:00:00 26 13 Sur 29 Sur 0 -- -- 37
2020-05-22 19:00:00 28.3 16 Sur 28 Sudoeste 0 -- -- 36
2020-05-22 18:00:00 29.3 21 Sur 32 Sur 0 -- -- 36
2020-05-22 17:00:00 30.1 20 Sur 34 Sur 0 -- -- 35
2020-05-22 16:00:00 30.7 19 Sur 35 Sur 0 -- -- 38
2020-05-22 15:00:00 30.2 24 Sudeste 37 Sudeste 0 -- -- 41
2020-05-22 14:00:00 30.1 22 Sur 34 Sur 0 -- -- 41
2020-05-22 13:00:00 29.1 25 Sur 32 Sur 0 -- -- 44
2020-05-22 12:00:00 27.9 3 Norte 9 Nordeste 0 -- -- 44
2020-05-22 11:00:00 25.5 8 Nordeste 12 Norte 0 -- -- 53
2020-05-22 10:00:00 23.4 7 Norte 12 Nordeste 0 -- -- 55
2020-05-22 09:00:00 20.6 7 Nordeste 12 Norte 0 -- -- 61
2020-05-22 08:00:00 15.8 4 Norte 8 Norte 0 -- -- 81
2020-05-22 07:00:00 12 5 Norte 8 Norte 0 -- -- 93
2020-05-22 06:00:00 11.7 5 Norte 10 Norte 0 -- -- 95
2020-05-22 05:00:00 12.2 4 Norte 9 Norte 0 -- -- 93
2020-05-22 04:00:00 13 5 Norte 8 Norte 0 -- -- 90
2020-05-22 03:00:00 13.1 6 Norte 9 Norte 0 -- -- 90
2020-05-22 02:00:00 13.7 7 Norte 9 Norte 0 -- -- 87
2020-05-22 01:00:00 14.4 5 Norte 8 Norte 0 -- -- 84
2020-05-22 00:00:00 15.8 5 Nordeste 7 Nordeste 0 -- -- 78
2020-05-21 23:00:00 17.8 5 Norte 6 Norte 0 -- -- 69
2020-05-21 22:00:00 19.7 0 Calma 17 Sur 0 -- -- 60
2020-05-21 21:00:00 21.8 15 Sur 27 Sur 0 -- -- 53
2020-05-21 20:00:00 23.9 22 Sur 34 Sudeste 0 -- -- 45
2020-05-21 19:00:00 25.9 25 Sur 37 Sudeste 0 -- -- 40
2020-05-21 18:00:00 27 25 Sur 42 Sudeste 0 -- -- 41
2020-05-21 17:00:00 26.4 24 Sur 37 Sudeste 0 -- -- 43
2020-05-21 16:00:00 28.2 28 Sur 39 Sudeste 0 -- -- 40
2020-05-21 15:00:00 27.9 25 Sudeste 35 Sur 0 -- -- 48
2020-05-21 14:00:00 27.3 26 Sur 32 Sur 0 -- -- 47
2020-05-21 13:00:00 27 22 Sur 29 Sur 0 -- -- 47
2020-05-21 12:00:00 25.9 4 Nordeste 9 Nordeste 0 -- -- 40
2020-05-21 11:00:00 24 5 Norte 13 Nordeste 0 -- -- 47
2020-05-21 10:00:00 22.8 10 Nordeste 16 Norte 0 -- -- 48
2020-05-21 09:00:00 21 7 Nordeste 10 Norte 0 -- -- 54
2020-05-21 08:00:00 16.4 5 Norte 9 Norte 0 -- -- 74
2020-05-21 07:00:00 11.8 3 Norte 8 Norte 0 -- -- 91
2020-05-21 06:00:00 11.7 4 Norte 9 Norte 0 -- -- 94
2020-05-21 05:00:00 12.2 4 Norte 11 Norte 0 -- -- 91
2020-05-21 04:00:00 11.9 7 Norte 9 Nordeste 0 -- -- 93
2020-05-21 03:00:00 12.7 4 Norte 9 Norte 0 -- -- 90
2020-05-21 02:00:00 13.8 4 Norte 7 Norte 0 -- -- 86
2020-05-21 01:00:00 14.4 5 Norte 6 Norte 0 -- -- 85
2020-05-21 00:00:00 16.3 3 Nordeste 5 Nordeste 0 -- -- 77
2020-05-20 23:00:00 18.3 2 Sur 11 Sur 0 -- -- 68
2020-05-20 22:00:00 19.9 9 Sur 19 Sur 0 -- -- 63
2020-05-20 21:00:00 21.2 19 Sur 29 Sur 0 -- -- 60
2020-05-20 20:00:00 23.1 22 Sur 32 Sur 0 -- -- 53
2020-05-20 19:00:00 24.7 26 Sur 39 Sur 0 -- -- 50
2020-05-20 18:00:00 25.4 29 Sur 42 Sur 0 -- -- 49
2020-05-20 17:00:00 26.1 31 Sur 44 Sur 0 -- -- 45
2020-05-20 16:00:00 26.5 33 Sur 46 Sur 0 -- -- 42
2020-05-20 15:00:00 27.1 29 Sudeste 41 Sur 0 -- -- 41
2020-05-20 14:00:00 26 35 Sur 45 Sur 0 -- -- 42
2020-05-20 13:00:00 25.2 33 Sur 40 Sur 0 -- -- 39
2020-05-20 12:00:00 27.1 4 Nordeste 12 Oeste 0 -- -- 30
2020-05-20 11:00:00 24.7 5 Noroeste 16 Nordeste 0 -- -- 35
2020-05-20 10:00:00 22.3 8 Nordeste 14 Nordeste 0 -- -- 40
2020-05-20 09:00:00 19.8 4 Norte 14 Nordeste 0 -- -- 44
2020-05-20 08:00:00 15.4 9 Nordeste 15 Norte 0 -- -- 57
2020-05-20 07:00:00 11.7 4 Norte 6 Norte 0 -- -- 68
2020-05-20 06:00:00 11.1 5 Norte 12 Norte 0 -- -- 71
2020-05-20 05:00:00 11.6 8 Norte 17 Norte 0 -- -- 70
2020-05-20 04:00:00 12 10 Norte 17 Nordeste 0 -- -- 69
2020-05-20 03:00:00 14.9 9 Nordeste 19 Noroeste 0 -- -- 56
2020-05-20 02:00:00 17.3 12 Noroeste 28 Norte 0 -- -- 49
2020-05-20 01:00:00 15.7 19 Norte 25 Norte 0 -- -- 55
2020-05-20 00:00:00 17.3 16 Norte 30 Norte 0 -- -- 50
2020-05-19 23:00:00 17.5 11 Nordeste 19 Noroeste 0 -- -- 49
2020-05-19 22:00:00 19.6 11 Norte 29 Nordeste 0 -- -- 42
2020-05-19 21:00:00 20.9 13 Norte 32 Nordeste 0 -- -- 39
2020-05-19 20:00:00 23.6 18 Nordeste 28 Nordeste 0 -- -- 36
2020-05-19 19:00:00 24.2 10 Sur 37 Sur 0 -- -- 53
2020-05-19 18:00:00 24.9 26 Sur 38 Sur 0 -- -- 52
2020-05-19 17:00:00 24.6 33 Sur 44 Sudeste 0 -- -- 53
2020-05-19 16:00:00 24.8 33 Sur 44 Sur 0 -- -- 54
2020-05-19 15:00:00 24.1 35 Sur 48 Sur 0 -- -- 56
2020-05-19 14:00:00 24.9 27 Sur 36 Sur 0 -- -- 50
2020-05-19 13:00:00 27.6 14 Nordeste 26 Nordeste 0 -- -- 33
2020-05-19 12:00:00 25.6 10 Norte 18 Norte 0 -- -- 34
2020-05-19 11:00:00 22.6 5 Norte 11 Norte 0 -- -- 42
2020-05-19 10:00:00 20.7 6 Norte 10 Norte 0 -- -- 41
2020-05-19 09:00:00 17.5 8 Nordeste 15 Nordeste 0 -- -- 49
2020-05-19 08:00:00 13.9 5 Norte 8 Norte 0 -- -- 61
2020-05-19 07:00:00 9.7 4 Norte 14 Noroeste 0 -- -- 69
2020-05-19 06:00:00 9.4 8 Norte 12 Norte 0 -- -- 69
2020-05-19 05:00:00 9.9 7 Norte 17 Nordeste 0 -- -- 68
2020-05-19 04:00:00 11 10 Nordeste 17 Nordeste 0 -- -- 62
2020-05-19 03:00:00 11.1 7 Nordeste 10 Nordeste 0 -- -- 63
2020-05-19 02:00:00 13 7 Norte 12 Norte 0 -- -- 56
2020-05-19 01:00:00 14.2 7 Norte 17 Norte 0 -- -- 52
2020-05-19 00:00:00 14 11 Norte 23 Norte 0 -- -- 57
2020-05-18 23:00:00 13.5 8 Norte 14 Norte 0 -- -- 81
2020-05-18 22:00:00 16.2 5 Noroeste 23 Sur 0 -- -- 74
2020-05-18 21:00:00 18.2 20 Sur 33 Sur 0 -- -- 64
2020-05-18 20:00:00 19.3 26 Sur 33 Sur 0 -- -- 62
2020-05-18 19:00:00 21.8 22 Sudeste 34 Sur 0 -- -- 55
2020-05-18 18:00:00 22.2 27 Sur 40 Sur 0 -- -- 55
2020-05-18 17:00:00 22.5 31 Sur 46 Sur 0 -- -- 55
2020-05-18 16:00:00 22.6 35 Sur 47 Sudeste 0 -- -- 55
2020-05-18 15:00:00 22.2 39 Sur 48 Sur 0 -- -- 55
2020-05-18 14:00:00 21.7 37 Sur 54 Sur 0 -- -- 54
2020-05-18 13:00:00 24.5 13 Sur 23 Sur 0 -- -- 39
2020-05-18 12:00:00 23.6 6 Norte 12 Noroeste 0 -- -- 34
2020-05-18 11:00:00 20.9 7 Nordeste 11 Nordeste 0 -- -- 42
2020-05-18 10:00:00 19.5 5 Nordeste 14 Nordeste 0 -- -- 43
2020-05-18 09:00:00 17.1 4 Nordeste 10 Nordeste 0 -- -- 46
2020-05-18 08:00:00 13.1 6 Norte 15 Nordeste 0 -- -- 57
2020-05-18 07:00:00 7.2 8 Norte 13 Norte 0 -- -- 77
2020-05-18 06:00:00 8.7 10 Norte 28 Norte 0 -- -- 69
2020-05-18 05:00:00 10.8 19 Norte 35 Norte 0 -- -- 58
2020-05-18 04:00:00 10.6 14 Nordeste 23 Nordeste 0 -- -- 60
2020-05-18 03:00:00 10.4 14 Norte 20 Norte 0 -- -- 65
2020-05-18 02:00:00 12.4 13 Norte 25 Nordeste 0 -- -- 55
2020-05-18 01:00:00 13.5 15 Norte 28 Norte 0 -- -- 52
2020-05-18 00:00:00 13.8 10 Norte 33 Norte 0 -- -- 52
2020-05-17 23:00:00 15 15 Norte 42 Norte 0 -- -- 47
2020-05-17 22:00:00 16.2 19 Norte 40 Norte 0 -- -- 44
2020-05-17 21:00:00 17.4 6 Sur 29 Sur 0 -- -- 66
2020-05-17 20:00:00 18.4 24 Sur 36 Sur 0 -- -- 63
2020-05-17 19:00:00 20 27 Sur 44 Sudeste 0 -- -- 60
2020-05-17 18:00:00 20.9 31 Sur 45 Sur 0 -- -- 60
2020-05-17 17:00:00 20.7 36 Sur 49 Sur 0 -- -- 62
2020-05-17 16:00:00 20.4 38 Sur 57 Sur 0 -- -- 65
2020-05-17 15:00:00 18.6 49 Sur 59 Sur 0 -- -- 70
2020-05-17 14:00:00 17.6 49 Sur 58 Sur 0 -- -- 71
2020-05-17 13:00:00 17.3 43 Sur 52 Sur 0 -- -- 72
2020-05-17 12:00:00 16.4 41 Sur 49 Sur 0 -- -- 71
2020-05-17 11:00:00 15.9 24 Sur 31 Sur 0 -- -- 71
2020-05-17 10:00:00 14.7 14 Sur 21 Sur 0 -- -- 75
2020-05-17 09:00:00 15.5 3 Nordeste 6 Norte 0 -- -- 63
2020-05-17 08:00:00 10.7 3 Noroeste 11 Norte 0 -- -- 77
2020-05-17 07:00:00 8.7 5 Norte 8 Norte 0 -- -- 82
2020-05-17 06:00:00 8.9 2 Norte 8 Nordeste 0 -- -- 82
2020-05-17 05:00:00 8.5 7 Norte 14 Norte 0 -- -- 87
2020-05-17 04:00:00 9.7 11 Norte 16 Nordeste 0 -- -- 78
2020-05-17 03:00:00 11.6 8 Norte 14 Norte 0 -- -- 71
2020-05-17 02:00:00 12.7 10 Norte 18 Norte 0 -- -- 62
2020-05-17 01:00:00 12.7 10 Norte 20 Norte 0 -- -- 60
2020-05-17 00:00:00 12.3 13 Norte 21 Norte 0 -- -- 63
2020-05-16 23:00:00 14 12 Norte 28 Norte 0 -- -- 59
2020-05-16 22:00:00 13.7 7 Este 18 Nordeste 0 -- -- 66
2020-05-16 21:00:00 13.5 8 Sur 14 Sur 0 -- -- 89
2020-05-16 20:00:00 14.5 6 Sur 24 Sur 0 -- -- 81
2020-05-16 19:00:00 14.6 21 Sur 40 Sudeste 0 -- -- 84
2020-05-16 18:00:00 13.8 31 Sur 40 Sur 0.2 -- -- 88
2020-05-16 17:00:00 13.5 23 Sur 33 Sur 0 -- -- 86
2020-05-16 16:00:00 13.5 20 Sur 41 Sur 0.2 -- -- 93
2020-05-16 15:00:00 13.8 27 Sur 45 Sur 0 -- -- 92
2020-05-16 14:00:00 17 25 Sur 39 Sur 0 -- -- 73
2020-05-16 13:00:00 23.1 6 Nordeste 20 Nordeste 0 -- -- 46
2020-05-16 12:00:00 21.7 12 Nordeste 24 Norte 0 -- -- 44
2020-05-16 11:00:00 19.6 5 Nordeste 10 Nordeste 0 -- -- 55
2020-05-16 10:00:00 15.2 3 Nordeste 8 Norte 0 -- -- 73
2020-05-16 09:00:00 13.3 4 Nordeste 8 Nordeste 0 -- -- 80
2020-05-16 08:00:00 10.4 5 Norte 9 Norte 0 -- -- 96
2020-05-16 07:00:00 9.3 6 Norte 8 Norte 0 -- -- 96
2020-05-16 06:00:00 9.2 4 Norte 9 Nordeste 0 -- -- 96
2020-05-16 05:00:00 9.1 5 Nordeste 9 Nordeste 0 -- -- 95
2020-05-16 04:00:00 9.6 4 Norte 6 Norte 0 -- -- 91
2020-05-16 03:00:00 11.1 5 Nordeste 24 Norte 0 -- -- 85
2020-05-16 02:00:00 11.7 15 Norte 30 Norte 0 -- -- 81
2020-05-16 01:00:00 12.1 15 Norte 28 Nordeste 0 -- -- 82
2020-05-16 00:00:00 12.3 11 Norte 24 Norte 0 -- -- 84
2020-05-15 23:00:00 12.5 13 Norte 21 Norte 0 -- -- 81
2020-05-15 22:00:00 13.4 8 Nordeste 21 Norte 0 -- -- 78
2020-05-15 21:00:00 15.4 14 Sudeste 30 Sudeste 0 -- -- 69
2020-05-15 20:00:00 16.5 15 Sudeste 27 Sudeste 0 -- -- 72
2020-05-15 19:00:00 17.6 9 Sudoeste 22 Sur 0 -- -- 67
2020-05-15 18:00:00 18 11 Sur 32 Sur 0 -- -- 66
2020-05-15 17:00:00 17 20 Sur 34 Sudeste 0 -- -- 78
2020-05-15 16:00:00 17.3 26 Sur 42 Sudeste 0 -- -- 69
2020-05-15 15:00:00 17.5 35 Sur 51 Sur 0 -- -- 67
2020-05-15 14:00:00 18.4 22 Sudeste 31 Sudeste 0 -- -- 65
2020-05-15 13:00:00 18.8 20 Sur 35 Sur 0 -- -- 68
2020-05-15 12:00:00 16.3 27 Sur 35 Sur 0 -- -- 77
2020-05-15 11:00:00 13.8 20 Sur 25 Sur 0 -- -- 89
2020-05-15 10:00:00 14.5 4 Sudeste 8 Nordeste 0.2 -- -- 92
2020-05-15 09:00:00 11.8 4 Norte 6 Norte 0 -- -- 99
2020-05-15 08:00:00 10.1 3 Norte 5 Norte 0 -- -- 100
2020-05-15 07:00:00 9.4 3 Norte 5 Nordeste 0 -- -- 100
2020-05-15 06:00:00 9.3 0 Calma 4 Nordeste 0 -- -- 100
2020-05-15 05:00:00 9.2 4 Norte 6 Norte 0 -- -- 100
2020-05-15 04:00:00 9.5 5 Norte 6 Nordeste 0 -- -- 100
2020-05-15 03:00:00 9.6 0 Calma 4 Sudoeste 0 -- -- 100
2020-05-15 02:00:00 9.5 5 Sur 9 Sudoeste 0 -- -- 100
2020-05-15 01:00:00 9.6 0 Calma 5 Sudoeste 0 -- -- 100
2020-05-15 00:00:00 9.8 0 Calma 4 Sudoeste 0 -- -- 99
2020-05-14 23:00:00 10 2 Sur 9 Sur 0 -- -- 99
2020-05-14 22:00:00 10.2 4 Sur 6 Sur 0 -- -- 98
2020-05-14 21:00:00 11.1 4 Sur 4 Sudeste 0 -- -- 97
2020-05-14 20:00:00 11.7 0 Calma 15 Sur 0.2 -- -- 96
2020-05-14 19:00:00 11.6 14 Sur 23 Sur 3.6 -- -- 96
2020-05-14 18:00:00 11.6 14 Sudeste 20 Sudeste 3.4 -- -- 97
2020-05-14 17:00:00 12 15 Sur 31 Sur 2.6 -- -- 97
2020-05-14 16:00:00 12.8 11 Sur 18 Sur 3.2 -- -- 96
2020-05-14 15:00:00 13.3 4 Norte 13 Sur 5.6 -- -- 97
2020-05-14 14:00:00 13.7 6 Norte 16 Noroeste 0.8 -- -- 95
2020-05-14 13:00:00 16.6 0 Calma 7 Norte 0 -- -- 74
2020-05-14 12:00:00 14.8 5 Norte 12 Norte 0 -- -- 78
2020-05-14 11:00:00 14.7 0 Calma 6 Norte 0 -- -- 76
2020-05-14 10:00:00 12.3 4 Norte 8 Norte 0 -- -- 96
2020-05-14 09:00:00 10.2 0 Calma 6 Norte 0 -- -- 99
2020-05-14 08:00:00 9.4 5 Norte 8 Norte 0 -- -- 99
2020-05-14 07:00:00 8.5 2 Norte 7 Norte 0 -- -- 100
2020-05-14 06:00:00 8.4 5 Norte 7 Nordeste 0 -- -- 99
2020-05-14 05:00:00 8.6 5 Norte 9 Norte 0 -- -- 99
2020-05-14 04:00:00 8.7 6 Norte 9 Norte 0 -- -- 97
2020-05-14 03:00:00 9.3 5 Norte 9 Nordeste 0 -- -- 97
2020-05-14 02:00:00 10.5 3 Nordeste 7 Norte 0 -- -- 92
2020-05-14 01:00:00 10.8 3 Nordeste 6 Nordeste 0 -- -- 91
2020-05-14 00:00:00 11.7 2 Sur 4 Nordeste 0 -- -- 88
2020-05-13 23:00:00 12.4 0 Calma 10 Sur 0 -- -- 85
2020-05-13 22:00:00 13.2 6 Sur 13 Sur 0 -- -- 82
2020-05-13 21:00:00 14.5 10 Sur 23 Sur 0 -- -- 77
2020-05-13 20:00:00 16.3 15 Sudeste 22 Sur 0 -- -- 69
2020-05-13 19:00:00 16.9 14 Sudeste 21 Sur 0 -- -- 65
2020-05-13 18:00:00 17.9 16 Sur 24 Sur 0 -- -- 62
2020-05-13 17:00:00 18.2 12 Sur 25 Sudeste 0 -- -- 61
2020-05-13 16:00:00 17.3 19 Sudeste 35 Sudeste 0 -- -- 64
2020-05-13 15:00:00 17.6 26 Sur 37 Sur 0 -- -- 66
2020-05-13 14:00:00 16.6 24 Sudeste 38 Sur 0 -- -- 73
2020-05-13 13:00:00 18.1 21 Sur 28 Sur 0.2 -- -- 76
2020-05-13 12:00:00 16.5 18 Sur 23 Sur 0 -- -- 78
2020-05-13 11:00:00 15.6 3 Nordeste 7 Sudoeste 0 -- -- 88
2020-05-13 10:00:00 14.5 0 Calma 6 Nordeste 0 -- -- 90
2020-05-13 09:00:00 12.3 3 Norte 7 Norte 1 -- -- 98
2020-05-13 08:00:00 11.3 3 Nordeste 8 Nordeste 1.6 -- -- 98
2020-05-13 07:00:00 11.5 3 Este 10 Sudoeste 5 -- -- 98
2020-05-13 06:00:00 11.7 7 Sudeste 24 Sudoeste 0.6 -- -- 98
2020-05-13 05:00:00 11.4 3 Norte 7 Nordeste 0 -- -- 98
2020-05-13 04:00:00 11.8 4 Norte 6 Nordeste 0.2 -- -- 97
2020-05-13 03:00:00 12.3 0 Calma 6 Norte 0 -- -- 97
2020-05-13 02:00:00 12.7 0 Calma 6 Norte 0.2 -- -- 96
2020-05-13 01:00:00 12.9 4 Norte 11 Norte 0.2 -- -- 94
2020-05-13 00:00:00 14.3 5 Sudoeste 28 Sur 0 -- -- 86
2020-05-12 23:00:00 15.3 22 Sur 31 Sur 0 -- -- 78
2020-05-12 22:00:00 15.6 14 Sur 33 Sur 0 -- -- 74
2020-05-12 21:00:00 16.2 28 Sur 46 Sur 0 -- -- 71
2020-05-12 20:00:00 16.9 27 Sur 37 Sur 0 -- -- 73
2020-05-12 19:00:00 18.4 15 Sudeste 41 Sur 0 -- -- 66
2020-05-12 18:00:00 19.3 25 Sur 35 Sur 0 -- -- 64
2020-05-12 17:00:00 18.4 27 Sur 41 Sur 0 -- -- 65
2020-05-12 16:00:00 19.1 26 Sudeste 38 Sudeste 0 -- -- 59
2020-05-12 15:00:00 20.9 7 Norte 27 Sur 0 -- -- 59
2020-05-12 14:00:00 19.4 26 Sur 48 Sur 0 -- -- 59
2020-05-12 13:00:00 18.3 37 Sur 42 Sur 0 -- -- 61
2020-05-12 12:00:00 19.2 15 Sur 20 Sur 0 -- -- 56
2020-05-12 11:00:00 18.2 9 Sudeste 17 Sur 0 -- -- 59
2020-05-12 10:00:00 15 5 Norte 8 Norte 0 -- -- 68
2020-05-12 09:00:00 15.2 3 Nordeste 5 Norte 0 -- -- 67
2020-05-12 08:00:00 8.8 4 Norte 8 Nordeste 0 -- -- 96
2020-05-12 07:00:00 5.9 5 Norte 6 Norte 0 -- -- 99
2020-05-12 06:00:00 6.2 4 Norte 9 Norte 0 -- -- 99
2020-05-12 05:00:00 6.8 4 Nordeste 6 Norte 0 -- -- 97
2020-05-12 04:00:00 7 4 Norte 7 Norte 0 -- -- 98
2020-05-12 03:00:00 7.8 4 Nordeste 5 Nordeste 0 -- -- 93
2020-05-12 02:00:00 8.8 2 Norte 9 Norte 0 -- -- 91
2020-05-12 01:00:00 9.3 6 Norte 9 Nordeste 0 -- -- 88
2020-05-12 00:00:00 10.5 6 Norte 9 Norte 0 -- -- 82
2020-05-11 23:00:00 12.5 6 Nordeste 9 Nordeste 0 -- -- 74
2020-05-11 22:00:00 15.3 3 Sur 20 Sur 0 -- -- 58
2020-05-11 21:00:00 16.6 8 Sudeste 22 Sudoeste 0 -- -- 54
2020-05-11 20:00:00 18.2 4 Sudeste 34 Sudoeste 0 -- -- 45
2020-05-11 19:00:00 19.6 12 Sur 41 Sur 0 -- -- 45
2020-05-11 18:00:00 18.4 15 Sudoeste 35 Sudoeste 0 -- -- 53
2020-05-11 17:00:00 19.7 10 Sudoeste 24 Oeste 0 -- -- 50
2020-05-11 16:00:00 18.8 13 Sur 27 Sur 0 -- -- 55
2020-05-11 15:00:00 16.5 7 Sudeste 22 Sudeste 0 -- -- 65
2020-05-11 14:00:00 15 8 Sudeste 26 Oeste 0 -- -- 68
2020-05-11 13:00:00 16 5 Sur 30 Sudoeste 0 -- -- 63
2020-05-11 12:00:00 14.5 8 Sur 27 Sudeste 0 -- -- 72
2020-05-11 11:00:00 13.7 12 Sur 35 Sur 0 -- -- 73
2020-05-11 10:00:00 13.4 18 Sur 33 Sudeste 0 -- -- 83
2020-05-11 09:00:00 11 24 Sur 34 Sur 0 -- -- 95
2020-05-11 08:00:00 10.9 23 Sur 33 Sur 0 -- -- 97
2020-05-11 07:00:00 10.6 17 Sur 24 Sur 0 -- -- 99
2020-05-11 06:00:00 10.5 3 Norte 10 Sur 0 -- -- 100
2020-05-11 05:00:00 10.2 3 Norte 5 Sur 0 -- -- 100
2020-05-11 04:00:00 10.1 2 Norte 9 Sur 0 -- -- 100
2020-05-11 03:00:00 10.1 3 Norte 9 Sudeste 0 -- -- 99
2020-05-11 02:00:00 10 4 Sur 9 Sudoeste 0 -- -- 99
2020-05-11 01:00:00 10.2 4 Sur 8 Sur 0.2 -- -- 99
2020-05-11 00:00:00 10.5 5 Sur 17 Sur 0 -- -- 99
2020-05-10 23:00:00 10.7 13 Sur 17 Sur 0 -- -- 98
2020-05-10 22:00:00 10.8 12 Sur 24 Sur 0 -- -- 98
2020-05-10 21:00:00 11.1 8 Sur 27 Sur 0 -- -- 98
2020-05-10 20:00:00 11.4 12 Sur 25 Sur 1.2 -- -- 98
2020-05-10 19:00:00 11.5 21 Sur 36 Sur 2 -- -- 97
2020-05-10 18:00:00 13.7 17 Sur 28 Sur 0 -- -- 89
2020-05-10 17:00:00 15 11 Sudeste 19 Sur 0 -- -- 87
2020-05-10 16:00:00 13.4 2 Noroeste 40 Sur 2.8 -- -- 98
2020-05-10 15:00:00 12.4 18 Sur 31 Sur 6.8 -- -- 97
2020-05-10 14:00:00 13.1 8 Sur 58 Sudeste 5 -- -- 94
2020-05-10 13:00:00 14.8 15 Sur 31 Este 0.8 -- -- 88
2020-05-10 12:00:00 14.7 8 Sur 30 Sudeste 1.4 -- -- 93
2020-05-10 11:00:00 14.8 9 Sudoeste 44 Sudeste 0.4 -- -- 90
2020-05-10 10:00:00 14.1 11 Sur 31 Sur 2 -- -- 97
2020-05-10 09:00:00 13.5 6 Norte 10 Norte 0.6 -- -- 96
2020-05-10 08:00:00 14 5 Nordeste 17 Sur 0 -- -- 93
2020-05-10 07:00:00 13.6 14 Sur 23 Sudeste 0 -- -- 92
2020-05-10 06:00:00 13.8 2 Sur 13 Sur 0 -- -- 89
2020-05-10 05:00:00 14.3 7 Sur 16 Sudeste 0 -- -- 86
2020-05-10 04:00:00 15.4 12 Sur 23 Sur 0 -- -- 83
2020-05-10 03:00:00 15.8 12 Sur 26 Sur 0 -- -- 82
2020-05-10 02:00:00 15.9 13 Sur 22 Sur 0 -- -- 81
2020-05-10 01:00:00 16.1 11 Sur 30 Sur 0 -- -- 80
2020-05-10 00:00:00 16.2 11 Sur 24 Sudeste 0 -- -- 79
2020-05-09 23:00:00 16.5 13 Sur 33 Sur 0 -- -- 78
2020-05-09 22:00:00 17 21 Sur 28 Sur 0 -- -- 77
2020-05-09 21:00:00 17.7 12 Sur 33 Sur 0 -- -- 73
2020-05-09 20:00:00 18.3 11 Sur 29 Sudeste 0 -- -- 68
2020-05-09 19:00:00 19 10 Sudoeste 37 Sur 0 -- -- 64
2020-05-09 18:00:00 19.9 22 Sudoeste 36 Sur 0 -- -- 60
2020-05-09 17:00:00 21 17 Sur 45 Sur 0 -- -- 58
2020-05-09 16:00:00 22.6 21 Sur 41 Sur 0 -- -- 55
2020-05-09 15:00:00 21.9 23 Sur 57 Sudeste 0 -- -- 53
2020-05-09 14:00:00 21.8 36 Sur 66 Sur 0 -- -- 50
2020-05-09 13:00:00 22.3 29 Sur 46 Sur 0 -- -- 46
2020-05-09 12:00:00 19.8 3 Noroeste 11 Sudeste 0 -- -- 52
2020-05-09 11:00:00 17.6 10 Norte 23 Norte 0 -- -- 60
2020-05-09 10:00:00 15.8 6 Norte 15 Nordeste 0 -- -- 64
2020-05-09 09:00:00 13.7 4 Norte 12 Norte 0 -- -- 74
2020-05-09 08:00:00 10.2 6 Noroeste 22 Norte 0 -- -- 87
2020-05-09 07:00:00 9.4 4 Norte 8 Norte 0 -- -- 87
2020-05-09 06:00:00 9.4 4 Noroeste 9 Norte 0 -- -- 88
2020-05-09 05:00:00 9 5 Norte 10 Nordeste 0 -- -- 91
2020-05-09 04:00:00 9.4 4 Norte 9 Norte 0 -- -- 90
2020-05-09 03:00:00 10.2 6 Norte 9 Nordeste 0 -- -- 86
2020-05-09 02:00:00 10.9 6 Norte 8 Norte 0 -- -- 84
2020-05-09 01:00:00 12.5 4 Norte 5 Norte 0 -- -- 76
2020-05-09 00:00:00 15.2 2 Sudeste 17 Sur 0 -- -- 65
2020-05-08 23:00:00 16.7 13 Sur 31 Sudeste 0 -- -- 57
2020-05-08 22:00:00 18.4 23 Sur 35 Sudeste 0 -- -- 52
2020-05-08 21:00:00 19.3 22 Sur 34 Sur 0 -- -- 49
2020-05-08 20:00:00 21.2 15 Sur 27 Sur 0 -- -- 44
2020-05-08 19:00:00 23.3 12 Sudoeste 34 Sur 0 -- -- 42
2020-05-08 18:00:00 24.9 13 Sur 40 Sudoeste 0 -- -- 38
2020-05-08 17:00:00 24.7 20 Sur 39 Sur 0 -- -- 33
2020-05-08 16:00:00 25.7 17 Sur 32 Sur 0 -- -- 31
2020-05-08 15:00:00 25.5 21 Sur 31 Sur 0 -- -- 35
2020-05-08 14:00:00 25.2 14 Sur 30 Sudeste 0 -- -- 38
2020-05-08 13:00:00 24.4 12 Sudeste 24 Sudoeste 0 -- -- 40
2020-05-08 12:00:00 22.3 14 Sudoeste 33 Sur 0 -- -- 42
2020-05-08 11:00:00 21.6 11 Sur 29 Sur 0 -- -- 46
2020-05-08 10:00:00 22 5 Nordeste 9 Norte 0 -- -- 58
2020-05-08 09:00:00 17.7 4 Norte 7 Norte 0 -- -- 73
2020-05-08 08:00:00 12.7 4 Norte 6 Norte 0 -- -- 93
2020-05-08 07:00:00 11.7 0 Calma 7 Norte 0 -- -- 95
2020-05-08 06:00:00 10.7 6 Norte 8 Norte 0 -- -- 96
2020-05-08 05:00:00 11.9 3 Nordeste 9 Norte 0 -- -- 91
2020-05-08 04:00:00 13 4 Norte 9 Norte 0 -- -- 87
2020-05-08 03:00:00 13.1 4 Norte 8 Norte 0 -- -- 86
2020-05-08 02:00:00 13.7 0 Calma 6 Sudeste 0 -- -- 83
2020-05-08 01:00:00 14.8 3 Sudoeste 9 Sur 0 -- -- 79
2020-05-08 00:00:00 16 8 Sur 28 Sur 0 -- -- 73
2020-05-07 23:00:00 17.4 19 Sur 30 Sur 0 -- -- 68
2020-05-07 22:00:00 18.6 24 Sur 35 Sur 0 -- -- 63
2020-05-07 21:00:00 19.7 17 Sur 33 Sudeste 0 -- -- 59
2020-05-07 20:00:00 21.2 13 Sur 25 Sur 0 -- -- 58
2020-05-07 19:00:00 22.8 19 Sur 31 Sur 0 -- -- 52
2020-05-07 18:00:00 23.2 16 Sur 35 Sur 0 -- -- 52
2020-05-07 17:00:00 24 24 Sudeste 37 Sudeste 0 -- -- 50
2020-05-07 16:00:00 24.4 23 Sur 34 Sur 0 -- -- 45
2020-05-07 15:00:00 25.5 24 Sur 40 Sudeste 0 -- -- 43
2020-05-07 14:00:00 25.5 28 Sur 36 Sur 0 -- -- 42
2020-05-07 13:00:00 25 27 Sur 36 Sur 0 -- -- 45
2020-05-07 12:00:00 24.3 20 Sur 27 Sur 0 -- -- 49
2020-05-07 11:00:00 23.9 4 Nordeste 9 Norte 0 -- -- 48
2020-05-07 10:00:00 20.8 2 Este 6 Nordeste 0 -- -- 53
2020-05-07 09:00:00 17 4 Nordeste 9 Noroeste 0 -- -- 65
2020-05-07 08:00:00 11.3 6 Noroeste 10 Noroeste 0 -- -- 89
2020-05-07 07:00:00 8.9 5 Norte 8 Norte 0 -- -- 94
2020-05-07 06:00:00 9.1 6 Norte 8 Norte 0 -- -- 92
2020-05-07 05:00:00 9.8 6 Norte 11 Norte 0 -- -- 88
2020-05-07 04:00:00 10.7 5 Norte 6 Norte 0 -- -- 83
2020-05-07 03:00:00 11.5 4 Norte 7 Norte 0 -- -- 79
2020-05-07 02:00:00 12.4 3 Nordeste 5 Nordeste 0 -- -- 74
2020-05-07 01:00:00 13.8 4 Norte 5 Nordeste 0 -- -- 69
2020-05-07 00:00:00 15.1 5 Nordeste 10 Sudeste 0 -- -- 62
2020-05-06 23:00:00 16.6 10 Sur 23 Sur 0 -- -- 56
2020-05-06 22:00:00 18.4 5 Sur 33 Sur 0 -- -- 48
2020-05-06 21:00:00 20.1 28 Sur 36 Sur 0 -- -- 43
2020-05-06 20:00:00 21.5 23 Sudeste 37 Sudeste 0 -- -- 43
2020-05-06 19:00:00 24.1 26 Sudeste 38 Sudeste 0 -- -- 38
2020-05-06 18:00:00 25.2 25 Sudeste 45 Sudeste 0 -- -- 41
2020-05-06 17:00:00 25.9 27 Sudeste 42 Sudeste 0 -- -- 42
2020-05-06 16:00:00 25.6 26 Sur 44 Sur 0 -- -- 44
2020-05-06 15:00:00 25.6 25 Sur 40 Sudeste 0 -- -- 47
2020-05-06 14:00:00 25.5 25 Sur 39 Sur 0 -- -- 46
2020-05-06 13:00:00 24.6 26 Sur 35 Sur 0 -- -- 48
2020-05-06 12:00:00 23.9 6 Este 10 Sur 0 -- -- 42
2020-05-06 11:00:00 21.5 3 Nordeste 9 Nordeste 0 -- -- 39
2020-05-06 10:00:00 18.9 4 Nordeste 8 Nordeste 0 -- -- 47
2020-05-06 09:00:00 15.2 4 Norte 10 Norte 0 -- -- 58
2020-05-06 08:00:00 9.5 4 Norte 6 Nordeste 0 -- -- 92
2020-05-06 07:00:00 7.8 5 Norte 7 Norte 0 -- -- 90
2020-05-06 06:00:00 7.2 4 Nordeste 7 Norte 0 -- -- 96
2020-05-06 05:00:00 9.4 5 Norte 9 Norte 0 -- -- 82
2020-05-06 04:00:00 8.4 5 Norte 8 Norte 0 -- -- 95
2020-05-06 03:00:00 9.8 5 Norte 8 Nordeste 0 -- -- 93
2020-05-06 02:00:00 10.3 5 Norte 8 Norte 0 -- -- 93
2020-05-06 01:00:00 12.1 6 Norte 10 Norte 0 -- -- 89
2020-05-06 00:00:00 13.2 7 Nordeste 10 Norte 0 -- -- 89
2020-05-05 23:00:00 15.1 3 Este 7 Nordeste 0 -- -- 89
2020-05-05 22:00:00 17.5 5 Sur 26 Sur 0 -- -- 82
2020-05-05 21:00:00 19.3 23 Sur 42 Sur 0 -- -- 78
2020-05-05 20:00:00 20.4 37 Sur 43 Sur 0 -- -- 74
2020-05-05 19:00:00 20.8 35 Sur 41 Sur 0 -- -- 72
2020-05-05 18:00:00 21.4 27 Sur 40 Sur 0 -- -- 69
2020-05-05 17:00:00 21.6 32 Sur 40 Sur 0 -- -- 65
2020-05-05 16:00:00 22.8 28 Sur 38 Sudeste 0 -- -- 60
2020-05-05 15:00:00 23.2 29 Sudeste 39 Sudeste 0 -- -- 57
2020-05-05 14:00:00 23.4 30 Sur 40 Sur 0 -- -- 53
2020-05-05 13:00:00 24 32 Sur 45 Sur 0 -- -- 49
2020-05-05 12:00:00 23.4 32 Sur 40 Sur 0 -- -- 45
2020-05-05 11:00:00 23.1 4 Nordeste 8 Norte 0 -- -- 48
2020-05-05 10:00:00 20.3 4 Nordeste 9 Nordeste 0 -- -- 57
2020-05-05 09:00:00 16.4 6 Norte 9 Norte 0 -- -- 73
2020-05-05 08:00:00 11.4 5 Norte 9 Norte 0 -- -- 91
2020-05-05 07:00:00 10.1 5 Norte 9 Norte 0 -- -- 93
2020-05-05 06:00:00 10.8 6 Norte 9 Norte 0 -- -- 91
2020-05-05 05:00:00 11.8 5 Norte 8 Norte 0 -- -- 86
2020-05-05 04:00:00 13.2 4 Nordeste 5 Nordeste 0 -- -- 82
2020-05-05 03:00:00 14.5 5 Norte 20 Sur 0 -- -- 76
2020-05-05 02:00:00 16.6 6 Sudeste 26 Sur 0 -- -- 65
2020-05-05 01:00:00 17.5 14 Sur 23 Sur 0 -- -- 63
2020-05-05 00:00:00 19.2 21 Sur 42 Sur 0 -- -- 56
2020-05-04 23:00:00 19.6 5 Norte 41 Sur 0 -- -- 59
2020-05-04 22:00:00 21.3 27 Sur 47 Sudeste 0 -- -- 50
2020-05-04 21:00:00 22.3 23 Sur 34 Sudeste 0 -- -- 53
2020-05-04 20:00:00 23.7 27 Sur 39 Sudeste 0 -- -- 46
2020-05-04 19:00:00 25.1 18 Sur 33 Sudeste 0 -- -- 47
2020-05-04 18:00:00 27.6 17 Sur 35 Sudeste 0 -- -- 42
2020-05-04 17:00:00 27.7 22 Sur 41 Sur 0 -- -- 45
2020-05-04 16:00:00 27.8 30 Sur 42 Sudeste 0 -- -- 46
2020-05-04 15:00:00 28.3 27 Sur 41 Sudeste 0 -- -- 43
2020-05-04 14:00:00 27 33 Sur 42 Sur 0 -- -- 45
2020-05-04 13:00:00 26.1 30 Sur 40 Sur 0 -- -- 48
2020-05-04 12:00:00 25.4 5 Nordeste 10 Nordeste 0 -- -- 46
2020-05-04 11:00:00 23.4 4 Nordeste 10 Norte 0 -- -- 52
2020-05-04 10:00:00 20.2 5 Nordeste 8 Nordeste 0 -- -- 60
2020-05-04 09:00:00 16.7 3 Nordeste 8 Nordeste 0 -- -- 74
2020-05-04 08:00:00 11.9 3 Norte 6 Norte 0 -- -- 96
2020-05-04 07:00:00 10.6 3 Noroeste 8 Norte 0 -- -- 99
2020-05-04 06:00:00 9.7 6 Norte 10 Norte 0 -- -- 99
2020-05-04 05:00:00 10.5 5 Norte 8 Norte 0 -- -- 98
2020-05-04 04:00:00 10.5 5 Norte 10 Norte 0 -- -- 97
2020-05-04 03:00:00 11 6 Norte 8 Norte 0 -- -- 96
2020-05-04 02:00:00 11.9 5 Norte 6 Norte 0 -- -- 93
2020-05-04 01:00:00 13.2 0 Calma 7 Norte 0 -- -- 88
2020-05-04 00:00:00 14.1 5 Norte 6 Nordeste 0 -- -- 85
2020-05-03 23:00:00 15.9 0 Calma 6 Nordeste 0 -- -- 76
2020-05-03 22:00:00 18 2 Sur 14 Sur 0 -- -- 67
2020-05-03 21:00:00 19.6 13 Sur 30 Sur 0 -- -- 61
2020-05-03 20:00:00 20.8 26 Sur 39 Sur 0 -- -- 56
2020-05-03 19:00:00 23 27 Sur 39 Sudeste 0 -- -- 50
2020-05-03 18:00:00 24 30 Sur 42 Sur 0 -- -- 46
2020-05-03 17:00:00 24.6 31 Sur 41 Sur 0 -- -- 47
2020-05-03 16:00:00 24.9 31 Sur 40 Sur 0 -- -- 45
2020-05-03 15:00:00 25.3 26 Sur 38 Sur 0 -- -- 46
2020-05-03 14:00:00 24.8 25 Sur 35 Sur 0 -- -- 46
2020-05-03 13:00:00 23.7 26 Sur 35 Sur 0 -- -- 50
2020-05-03 12:00:00 22.5 24 Sur 32 Sur 0 -- -- 56
2020-05-03 11:00:00 22.6 3 Nordeste 10 Nordeste 0 -- -- 45
2020-05-03 10:00:00 19.3 4 Nordeste 9 Nordeste 0 -- -- 52
2020-05-03 09:00:00 15 4 Norte 7 Norte 0 -- -- 71
2020-05-03 08:00:00 8.1 5 Norte 9 Norte 0 -- -- 97
2020-05-03 07:00:00 8.4 3 Norte 7 Norte 0 -- -- 100
2020-05-03 06:00:00 8 6 Norte 8 Norte 0 -- -- 98
2020-05-03 05:00:00 8.8 6 Norte 8 Norte 0 -- -- 96
2020-05-03 04:00:00 9.7 4 Norte 7 Noroeste 0 -- -- 95
2020-05-03 03:00:00 10.8 5 Norte 9 Norte 0 -- -- 90
2020-05-03 02:00:00 11.4 6 Norte 12 Norte 0 -- -- 89
2020-05-03 01:00:00 12.6 6 Norte 8 Norte 0 -- -- 84
2020-05-03 00:00:00 14.7 3 Nordeste 7 Nordeste 0 -- -- 73